sensor_id;sensor_type;location;lat;lon;timestamp;temperature;humidity
48208;DHT22;33997;53.278;9.708;2023-05-07T00:01:47;8.40;93.60
48208;DHT22;33997;53.278;9.708;2023-05-07T00:04:12;8.40;93.70
48208;DHT22;33997;53.278;9.708;2023-05-07T00:06:39;8.50;93.70
48208;DHT22;33997;53.278;9.708;2023-05-07T00:09:05;8.50;93.60
48208;DHT22;33997;53.278;9.708;2023-05-07T00:11:30;8.40;93.70
48208;DHT22;33997;53.278;9.708;2023-05-07T00:13:56;8.40;93.50
48208;DHT22;33997;53.278;9.708;2023-05-07T00:16:21;8.40;93.20
48208;DHT22;33997;53.278;9.708;2023-05-07T00:18:47;8.50;93.10
48208;DHT22;33997;53.278;9.708;2023-05-07T00:21:12;8.50;93.10
48208;DHT22;33997;53.278;9.708;2023-05-07T00:23:38;8.50;92.90
48208;DHT22;33997;53.278;9.708;2023-05-07T00:26:04;8.50;92.90
48208;DHT22;33997;53.278;9.708;2023-05-07T00:28:29;8.40;92.80
48208;DHT22;33997;53.278;9.708;2023-05-07T00:30:55;8.40;92.80
48208;DHT22;33997;53.278;9.708;2023-05-07T00:33:21;8.40;92.70
48208;DHT22;33997;53.278;9.708;2023-05-07T00:35:47;8.40;92.80
48208;DHT22;33997;53.278;9.708;2023-05-07T00:38:13;8.40;92.30
48208;DHT22;33997;53.278;9.708;2023-05-07T00:40:38;8.40;92.10
48208;DHT22;33997;53.278;9.708;2023-05-07T00:43:04;8.40;92.00
48208;DHT22;33997;53.278;9.708;2023-05-07T00:45:29;8.40;92.10
48208;DHT22;33997;53.278;9.708;2023-05-07T00:47:59;8.40;92.10
48208;DHT22;33997;53.278;9.708;2023-05-07T00:50:26;8.50;92.10
48208;DHT22;33997;53.278;9.708;2023-05-07T00:52:53;8.50;92.00
48208;DHT22;33997;53.278;9.708;2023-05-07T00:55:18;8.50;92.00
48208;DHT22;33997;53.278;9.708;2023-05-07T00:57:45;8.50;92.00
48208;DHT22;33997;53.278;9.708;2023-05-07T01:00:11;8.50;92.00
48208;DHT22;33997;53.278;9.708;2023-05-07T01:02:40;8.60;92.00
48208;DHT22;33997;53.278;9.708;2023-05-07T01:05:08;8.50;91.90
48208;DHT22;33997;53.278;9.708;2023-05-07T01:07:34;8.50;91.90
48208;DHT22;33997;53.278;9.708;2023-05-07T01:10:01;8.60;92.00
48208;DHT22;33997;53.278;9.708;2023-05-07T01:12:29;8.60;92.10
48208;DHT22;33997;53.278;9.708;2023-05-07T01:14:54;8.50;92.10
48208;DHT22;33997;53.278;9.708;2023-05-07T01:17:20;8.50;92.10
48208;DHT22;33997;53.278;9.708;2023-05-07T01:19:46;8.50;92.30
48208;DHT22;33997;53.278;9.708;2023-05-07T01:22:14;8.50;92.30
48208;DHT22;33997;53.278;9.708;2023-05-07T01:24:41;8.50;92.40
48208;DHT22;33997;53.278;9.708;2023-05-07T01:27:07;8.50;92.30
48208;DHT22;33997;53.278;9.708;2023-05-07T01:29:32;8.50;92.30
48208;DHT22;33997;53.278;9.708;2023-05-07T01:32:00;8.50;92.40
48208;DHT22;33997;53.278;9.708;2023-05-07T01:34:28;8.50;92.50
48208;DHT22;33997;53.278;9.708;2023-05-07T01:36:56;8.60;92.50
48208;DHT22;33997;53.278;9.708;2023-05-07T01:39:27;8.60;92.50
48208;DHT22;33997;53.278;9.708;2023-05-07T01:41:55;8.50;92.40
48208;DHT22;33997;53.278;9.708;2023-05-07T01:44:22;8.50;92.40
48208;DHT22;33997;53.278;9.708;2023-05-07T01:46:48;8.50;92.50
48208;DHT22;33997;53.278;9.708;2023-05-07T01:49:14;8.50;92.60
48208;DHT22;33997;53.278;9.708;2023-05-07T01:51:40;8.50;92.60
48208;DHT22;33997;53.278;9.708;2023-05-07T01:54:06;8.50;92.60
48208;DHT22;33997;53.278;9.708;2023-05-07T01:56:33;8.50;92.60
48208;DHT22;33997;53.278;9.708;2023-05-07T01:58:59;8.50;92.20
48208;DHT22;33997;53.278;9.708;2023-05-07T02:01:24;8.50;92.00
48208;DHT22;33997;53.278;9.708;2023-05-07T02:03:50;8.50;92.00
48208;DHT22;33997;53.278;9.708;2023-05-07T02:06:15;8.50;91.80
48208;DHT22;33997;53.278;9.708;2023-05-07T02:08:41;8.40;91.60
48208;DHT22;33997;53.278;9.708;2023-05-07T02:11:06;8.40;91.30
48208;DHT22;33997;53.278;9.708;2023-05-07T02:13:33;8.50;91.70
48208;DHT22;33997;53.278;9.708;2023-05-07T02:15:59;8.50;91.40
48208;DHT22;33997;53.278;9.708;2023-05-07T02:18:25;8.40;91.20
48208;DHT22;33997;53.278;9.708;2023-05-07T02:20:50;8.40;91.10
48208;DHT22;33997;53.278;9.708;2023-05-07T02:23:16;8.40;91.30
48208;DHT22;33997;53.278;9.708;2023-05-07T02:25:41;8.40;91.30
48208;DHT22;33997;53.278;9.708;2023-05-07T02:28:07;8.40;91.00
48208;DHT22;33997;53.278;9.708;2023-05-07T02:30:32;8.40;91.20
48208;DHT22;33997;53.278;9.708;2023-05-07T02:32:58;8.40;90.90
48208;DHT22;33997;53.278;9.708;2023-05-07T02:35:24;8.40;91.20
48208;DHT22;33997;53.278;9.708;2023-05-07T02:37:50;8.40;91.10
48208;DHT22;33997;53.278;9.708;2023-05-07T02:40:15;8.40;91.00
48208;DHT22;33997;53.278;9.708;2023-05-07T02:42:41;8.40;90.90
48208;DHT22;33997;53.278;9.708;2023-05-07T02:45:07;8.40;90.80
48208;DHT22;33997;53.278;9.708;2023-05-07T02:47:32;8.40;90.90
48208;DHT22;33997;53.278;9.708;2023-05-07T02:49:58;8.50;90.90
48208;DHT22;33997;53.278;9.708;2023-05-07T02:52:23;8.40;90.70
48208;DHT22;33997;53.278;9.708;2023-05-07T02:54:49;8.40;90.40
48208;DHT22;33997;53.278;9.708;2023-05-07T02:57:14;8.40;90.40
48208;DHT22;33997;53.278;9.708;2023-05-07T02:59:41;8.50;90.50
48208;DHT22;33997;53.278;9.708;2023-05-07T03:02:07;8.40;90.50
48208;DHT22;33997;53.278;9.708;2023-05-07T03:04:32;8.40;90.50
48208;DHT22;33997;53.278;9.708;2023-05-07T03:06:57;8.50;90.70
48208;DHT22;33997;53.278;9.708;2023-05-07T03:09:23;8.50;90.70
48208;DHT22;33997;53.278;9.708;2023-05-07T03:11:48;8.50;90.80
48208;DHT22;33997;53.278;9.708;2023-05-07T03:14:14;8.50;90.80
48208;DHT22;33997;53.278;9.708;2023-05-07T03:16:39;8.50;90.60
48208;DHT22;33997;53.278;9.708;2023-05-07T03:19:05;8.40;90.50
48208;DHT22;33997;53.278;9.708;2023-05-07T03:21:31;8.40;90.60
48208;DHT22;33997;53.278;9.708;2023-05-07T03:23:59;8.40;90.20
48208;DHT22;33997;53.278;9.708;2023-05-07T03:26:24;8.40;90.30
48208;DHT22;33997;53.278;9.708;2023-05-07T03:28:50;8.40;90.30
48208;DHT22;33997;53.278;9.708;2023-05-07T03:31:16;8.30;90.20
48208;DHT22;33997;53.278;9.708;2023-05-07T03:33:52;8.40;90.20
48208;DHT22;33997;53.278;9.708;2023-05-07T03:36:18;8.40;90.20
48208;DHT22;33997;53.278;9.708;2023-05-07T03:38:43;8.40;90.20
48208;DHT22;33997;53.278;9.708;2023-05-07T03:41:09;8.40;90.20
48208;DHT22;33997;53.278;9.708;2023-05-07T03:43:34;8.40;90.10
48208;DHT22;33997;53.278;9.708;2023-05-07T03:46:00;8.40;90.20
48208;DHT22;33997;53.278;9.708;2023-05-07T03:48:25;8.40;90.00
48208;DHT22;33997;53.278;9.708;2023-05-07T03:50:51;8.40;90.10
48208;DHT22;33997;53.278;9.708;2023-05-07T03:53:16;8.40;90.00
48208;DHT22;33997;53.278;9.708;2023-05-07T03:55:42;8.40;90.00
48208;DHT22;33997;53.278;9.708;2023-05-07T03:58:07;8.40;90.20
48208;DHT22;33997;53.278;9.708;2023-05-07T04:00:33;8.40;90.00
48208;DHT22;33997;53.278;9.708;2023-05-07T04:03:03;8.40;90.10
48208;DHT22;33997;53.278;9.708;2023-05-07T04:05:29;8.40;90.20
48208;DHT22;33997;53.278;9.708;2023-05-07T04:07:55;8.30;90.10
48208;DHT22;33997;53.278;9.708;2023-05-07T04:10:21;8.40;90.30
48208;DHT22;33997;53.278;9.708;2023-05-07T04:12:46;8.50;90.20
48208;DHT22;33997;53.278;9.708;2023-05-07T04:15:12;8.40;90.20
48208;DHT22;33997;53.278;9.708;2023-05-07T04:17:38;8.40;90.10
48208;DHT22;33997;53.278;9.708;2023-05-07T04:20:04;8.40;90.40
48208;DHT22;33997;53.278;9.708;2023-05-07T04:22:29;8.50;90.20
48208;DHT22;33997;53.278;9.708;2023-05-07T04:24:55;8.50;90.50
48208;DHT22;33997;53.278;9.708;2023-05-07T04:27:21;8.50;90.40
48208;DHT22;33997;53.278;9.708;2023-05-07T04:29:47;8.40;90.60
48208;DHT22;33997;53.278;9.708;2023-05-07T04:32:12;8.50;90.40
48208;DHT22;33997;53.278;9.708;2023-05-07T04:34:38;8.50;90.60
48208;DHT22;33997;53.278;9.708;2023-05-07T04:37:04;8.50;90.30
48208;DHT22;33997;53.278;9.708;2023-05-07T04:39:29;8.60;90.30
48208;DHT22;33997;53.278;9.708;2023-05-07T04:41:54;8.60;90.20
48208;DHT22;33997;53.278;9.708;2023-05-07T04:44:20;8.60;90.20
48208;DHT22;33997;53.278;9.708;2023-05-07T04:46:46;8.60;90.30
48208;DHT22;33997;53.278;9.708;2023-05-07T04:49:11;8.60;90.30
48208;DHT22;33997;53.278;9.708;2023-05-07T04:51:37;8.60;90.30
48208;DHT22;33997;53.278;9.708;2023-05-07T04:54:03;8.60;90.20
48208;DHT22;33997;53.278;9.708;2023-05-07T04:56:29;8.50;90.00
48208;DHT22;33997;53.278;9.708;2023-05-07T04:58:57;8.60;90.10
48208;DHT22;33997;53.278;9.708;2023-05-07T05:01:23;8.70;90.30
48208;DHT22;33997;53.278;9.708;2023-05-07T05:03:48;8.60;90.10
48208;DHT22;33997;53.278;9.708;2023-05-07T05:06:14;8.70;90.10
48208;DHT22;33997;53.278;9.708;2023-05-07T05:08:39;8.70;89.90
48208;DHT22;33997;53.278;9.708;2023-05-07T05:11:05;8.70;89.90
48208;DHT22;33997;53.278;9.708;2023-05-07T05:13:30;8.60;89.70
48208;DHT22;33997;53.278;9.708;2023-05-07T05:15:56;8.70;89.90
48208;DHT22;33997;53.278;9.708;2023-05-07T05:18:21;8.70;90.10
48208;DHT22;33997;53.278;9.708;2023-05-07T05:20:46;8.80;89.60
48208;DHT22;33997;53.278;9.708;2023-05-07T05:23:12;8.80;89.60
48208;DHT22;33997;53.278;9.708;2023-05-07T05:25:37;8.90;89.50
48208;DHT22;33997;53.278;9.708;2023-05-07T05:28:04;8.80;89.00
48208;DHT22;33997;53.278;9.708;2023-05-07T05:30:29;8.80;89.10
48208;DHT22;33997;53.278;9.708;2023-05-07T05:32:55;8.90;89.30
48208;DHT22;33997;53.278;9.708;2023-05-07T05:35:20;9.00;89.20
48208;DHT22;33997;53.278;9.708;2023-05-07T05:37:46;9.00;89.30
48208;DHT22;33997;53.278;9.708;2023-05-07T05:40:12;9.00;89.00
48208;DHT22;33997;53.278;9.708;2023-05-07T05:42:37;9.00;89.00
48208;DHT22;33997;53.278;9.708;2023-05-07T05:45:03;9.00;88.80
48208;DHT22;33997;53.278;9.708;2023-05-07T05:47:29;9.10;89.30
48208;DHT22;33997;53.278;9.708;2023-05-07T05:49:55;9.00;88.90
48208;DHT22;33997;53.278;9.708;2023-05-07T05:52:20;9.10;88.70
48208;DHT22;33997;53.278;9.708;2023-05-07T05:54:49;9.10;88.60
48208;DHT22;33997;53.278;9.708;2023-05-07T05:57:14;9.20;88.70
48208;DHT22;33997;53.278;9.708;2023-05-07T05:59:40;9.10;88.50
48208;DHT22;33997;53.278;9.708;2023-05-07T06:02:06;9.10;88.70
48208;DHT22;33997;53.278;9.708;2023-05-07T06:04:32;9.10;88.70
48208;DHT22;33997;53.278;9.708;2023-05-07T06:06:57;9.10;88.90
48208;DHT22;33997;53.278;9.708;2023-05-07T06:09:23;9.20;88.60
48208;DHT22;33997;53.278;9.708;2023-05-07T06:11:48;9.20;88.60
48208;DHT22;33997;53.278;9.708;2023-05-07T06:14:14;9.30;88.50
48208;DHT22;33997;53.278;9.708;2023-05-07T06:16:39;9.10;88.40
48208;DHT22;33997;53.278;9.708;2023-05-07T06:19:05;9.10;88.80
48208;DHT22;33997;53.278;9.708;2023-05-07T06:21:30;9.10;88.80
48208;DHT22;33997;53.278;9.708;2023-05-07T06:23:56;9.10;88.60
48208;DHT22;33997;53.278;9.708;2023-05-07T06:26:22;9.10;88.80
48208;DHT22;33997;53.278;9.708;2023-05-07T06:28:47;9.20;88.60
48208;DHT22;33997;53.278;9.708;2023-05-07T06:31:16;9.10;89.00
48208;DHT22;33997;53.278;9.708;2023-05-07T06:33:42;9.20;88.70
48208;DHT22;33997;53.278;9.708;2023-05-07T06:36:08;9.40;88.60
48208;DHT22;33997;53.278;9.708;2023-05-07T06:38:33;9.40;88.30
48208;DHT22;33997;53.278;9.708;2023-05-07T06:40:59;9.40;88.10
48208;DHT22;33997;53.278;9.708;2023-05-07T06:43:24;9.40;87.90
48208;DHT22;33997;53.278;9.708;2023-05-07T06:45:50;9.50;88.20
48208;DHT22;33997;53.278;9.708;2023-05-07T06:48:15;9.40;87.70
48208;DHT22;33997;53.278;9.708;2023-05-07T06:50:41;9.40;87.90
48208;DHT22;33997;53.278;9.708;2023-05-07T06:53:07;9.40;87.70
48208;DHT22;33997;53.278;9.708;2023-05-07T06:55:32;9.50;88.10
48208;DHT22;33997;53.278;9.708;2023-05-07T06:57:58;9.50;87.90
48208;DHT22;33997;53.278;9.708;2023-05-07T07:00:29;9.60;87.60
48208;DHT22;33997;53.278;9.708;2023-05-07T07:02:55;9.70;87.80
48208;DHT22;33997;53.278;9.708;2023-05-07T07:05:21;9.60;87.80
48208;DHT22;33997;53.278;9.708;2023-05-07T07:07:46;9.60;87.70
48208;DHT22;33997;53.278;9.708;2023-05-07T07:10:19;9.70;87.90
48208;DHT22;33997;53.278;9.708;2023-05-07T07:12:45;9.70;87.50
48208;DHT22;33997;53.278;9.708;2023-05-07T07:15:10;9.80;87.60
48208;DHT22;33997;53.278;9.708;2023-05-07T07:17:36;9.80;87.00
48208;DHT22;33997;53.278;9.708;2023-05-07T07:20:02;9.90;86.90
48208;DHT22;33997;53.278;9.708;2023-05-07T07:22:28;10.00;86.70
48208;DHT22;33997;53.278;9.708;2023-05-07T07:24:54;10.00;86.40
48208;DHT22;33997;53.278;9.708;2023-05-07T07:27:19;10.10;86.30
48208;DHT22;33997;53.278;9.708;2023-05-07T07:29:44;10.30;86.40
48208;DHT22;33997;53.278;9.708;2023-05-07T07:32:10;10.30;85.30
48208;DHT22;33997;53.278;9.708;2023-05-07T07:34:35;10.20;85.30
48208;DHT22;33997;53.278;9.708;2023-05-07T07:37:02;10.20;86.10
48208;DHT22;33997;53.278;9.708;2023-05-07T07:39:31;10.20;85.60
48208;DHT22;33997;53.278;9.708;2023-05-07T07:41:56;10.10;85.60
48208;DHT22;33997;53.278;9.708;2023-05-07T07:44:22;10.30;85.20
48208;DHT22;33997;53.278;9.708;2023-05-07T07:46:47;10.40;85.30
48208;DHT22;33997;53.278;9.708;2023-05-07T07:49:13;10.20;85.40
48208;DHT22;33997;53.278;9.708;2023-05-07T07:51:38;10.40;84.80
48208;DHT22;33997;53.278;9.708;2023-05-07T07:54:04;10.40;84.80
48208;DHT22;33997;53.278;9.708;2023-05-07T07:56:29;10.30;84.80
48208;DHT22;33997;53.278;9.708;2023-05-07T07:58:55;10.30;84.50
48208;DHT22;33997;53.278;9.708;2023-05-07T08:01:20;10.30;84.60
48208;DHT22;33997;53.278;9.708;2023-05-07T08:03:45;10.40;84.90
48208;DHT22;33997;53.278;9.708;2023-05-07T08:06:11;10.50;84.50
48208;DHT22;33997;53.278;9.708;2023-05-07T08:08:36;10.60;84.90
48208;DHT22;33997;53.278;9.708;2023-05-07T08:11:02;10.70;84.20
48208;DHT22;33997;53.278;9.708;2023-05-07T08:13:27;10.60;84.00
48208;DHT22;33997;53.278;9.708;2023-05-07T08:15:53;10.60;84.00
48208;DHT22;33997;53.278;9.708;2023-05-07T08:18:18;10.60;83.30
48208;DHT22;33997;53.278;9.708;2023-05-07T08:20:44;10.90;83.40
48208;DHT22;33997;53.278;9.708;2023-05-07T08:23:10;11.00;83.00
48208;DHT22;33997;53.278;9.708;2023-05-07T08:25:35;10.90;82.50
48208;DHT22;33997;53.278;9.708;2023-05-07T08:28:01;10.90;82.60
48208;DHT22;33997;53.278;9.708;2023-05-07T08:30:28;11.10;82.40
48208;DHT22;33997;53.278;9.708;2023-05-07T08:32:54;11.10;82.70
48208;DHT22;33997;53.278;9.708;2023-05-07T08:35:19;11.60;81.90
48208;DHT22;33997;53.278;9.708;2023-05-07T08:37:45;11.60;81.40
48208;DHT22;33997;53.278;9.708;2023-05-07T08:40:10;11.50;80.70
48208;DHT22;33997;53.278;9.708;2023-05-07T08:42:36;11.80;80.20
48208;DHT22;33997;53.278;9.708;2023-05-07T08:45:04;12.00;80.90
48208;DHT22;33997;53.278;9.708;2023-05-07T08:47:46;12.20;79.60
48208;DHT22;33997;53.278;9.708;2023-05-07T08:50:13;12.30;79.20
48208;DHT22;33997;53.278;9.708;2023-05-07T08:52:41;12.20;78.40
48208;DHT22;33997;53.278;9.708;2023-05-07T08:55:08;12.60;78.30
48208;DHT22;33997;53.278;9.708;2023-05-07T08:57:34;12.80;77.40
48208;DHT22;33997;53.278;9.708;2023-05-07T09:00:00;12.50;77.30
48208;DHT22;33997;53.278;9.708;2023-05-07T09:02:25;12.70;77.80
48208;DHT22;33997;53.278;9.708;2023-05-07T09:04:51;12.60;78.20
48208;DHT22;33997;53.278;9.708;2023-05-07T09:07:19;12.50;78.60
48208;DHT22;33997;53.278;9.708;2023-05-07T09:09:44;12.60;77.70
48208;DHT22;33997;53.278;9.708;2023-05-07T09:12:10;12.50;77.60
48208;DHT22;33997;53.278;9.708;2023-05-07T09:14:36;12.20;78.00
48208;DHT22;33997;53.278;9.708;2023-05-07T09:17:01;12.30;77.30
48208;DHT22;33997;53.278;9.708;2023-05-07T09:19:27;12.30;78.60
48208;DHT22;33997;53.278;9.708;2023-05-07T09:22:00;12.20;78.20
48208;DHT22;33997;53.278;9.708;2023-05-07T09:24:26;12.00;79.40
48208;DHT22;33997;53.278;9.708;2023-05-07T09:26:53;12.30;79.30
48208;DHT22;33997;53.278;9.708;2023-05-07T09:29:20;12.20;79.30
48208;DHT22;33997;53.278;9.708;2023-05-07T09:31:46;12.10;79.10
48208;DHT22;33997;53.278;9.708;2023-05-07T09:34:11;12.30;79.20
48208;DHT22;33997;53.278;9.708;2023-05-07T09:36:37;12.00;79.40
48208;DHT22;33997;53.278;9.708;2023-05-07T09:39:02;12.00;78.90
48208;DHT22;33997;53.278;9.708;2023-05-07T09:41:30;12.10;78.90
48208;DHT22;33997;53.278;9.708;2023-05-07T09:43:56;12.20;79.50
48208;DHT22;33997;53.278;9.708;2023-05-07T09:46:25;12.30;78.60
48208;DHT22;33997;53.278;9.708;2023-05-07T09:48:53;12.40;78.00
48208;DHT22;33997;53.278;9.708;2023-05-07T09:51:25;12.50;78.80
48208;DHT22;33997;53.278;9.708;2023-05-07T09:53:53;12.30;77.60
48208;DHT22;33997;53.278;9.708;2023-05-07T09:56:19;12.30;77.20
48208;DHT22;33997;53.278;9.708;2023-05-07T09:58:45;12.50;77.70
48208;DHT22;33997;53.278;9.708;2023-05-07T10:01:12;13.00;77.20
48208;DHT22;33997;53.278;9.708;2023-05-07T10:03:40;12.70;77.00
48208;DHT22;33997;53.278;9.708;2023-05-07T10:06:10;12.70;75.80
48208;DHT22;33997;53.278;9.708;2023-05-07T10:08:37;13.00;76.20
48208;DHT22;33997;53.278;9.708;2023-05-07T10:11:05;13.00;75.40
48208;DHT22;33997;53.278;9.708;2023-05-07T10:13:32;13.30;75.10
48208;DHT22;33997;53.278;9.708;2023-05-07T10:16:00;13.60;75.40
48208;DHT22;33997;53.278;9.708;2023-05-07T10:18:26;13.30;73.10
48208;DHT22;33997;53.278;9.708;2023-05-07T10:21:18;13.20;73.90
48208;DHT22;33997;53.278;9.708;2023-05-07T10:23:53;13.60;74.30
48208;DHT22;33997;53.278;9.708;2023-05-07T10:26:22;13.90;74.70
48208;DHT22;33997;53.278;9.708;2023-05-07T10:28:53;14.00;72.90
48208;DHT22;33997;53.278;9.708;2023-05-07T10:34:10;13.80;72.10
48208;DHT22;33997;53.278;9.708;2023-05-07T10:36:36;14.00;73.10
48208;DHT22;33997;53.278;9.708;2023-05-07T10:39:02;14.70;72.40
48208;DHT22;33997;53.278;9.708;2023-05-07T10:41:28;15.10;71.30
48208;DHT22;33997;53.278;9.708;2023-05-07T10:43:53;15.00;70.00
48208;DHT22;33997;53.278;9.708;2023-05-07T10:46:20;14.90;70.00
48208;DHT22;33997;53.278;9.708;2023-05-07T10:51:27;15.30;69.10
48208;DHT22;33997;53.278;9.708;2023-05-07T10:56:40;15.20;69.40
48208;DHT22;33997;53.278;9.708;2023-05-07T11:01:59;15.40;69.80
48208;DHT22;33997;53.278;9.708;2023-05-07T11:04:27;15.80;68.40
48208;DHT22;33997;53.278;9.708;2023-05-07T11:15:11;15.50;68.10
48208;DHT22;33997;53.278;9.708;2023-05-07T11:17:57;15.80;65.60
48208;DHT22;33997;53.278;9.708;2023-05-07T11:20:58;15.60;66.80
48208;DHT22;33997;53.278;9.708;2023-05-07T11:26:06;16.80;65.30
48208;DHT22;33997;53.278;9.708;2023-05-07T11:28:43;17.30;63.30
48208;DHT22;33997;53.278;9.708;2023-05-07T11:31:09;17.20;63.70
48208;DHT22;33997;53.278;9.708;2023-05-07T11:33:35;17.00;63.80
48208;DHT22;33997;53.278;9.708;2023-05-07T11:36:03;17.90;61.30
48208;DHT22;33997;53.278;9.708;2023-05-07T11:38:36;17.80;61.20
48208;DHT22;33997;53.278;9.708;2023-05-07T11:41:03;17.90;61.80
48208;DHT22;33997;53.278;9.708;2023-05-07T11:43:31;17.00;62.90
48208;DHT22;33997;53.278;9.708;2023-05-07T11:46:11;16.50;64.40
48208;DHT22;33997;53.278;9.708;2023-05-07T11:48:37;16.40;62.80
48208;DHT22;33997;53.278;9.708;2023-05-07T11:51:04;16.90;65.10
48208;DHT22;33997;53.278;9.708;2023-05-07T11:53:38;16.60;63.60
48208;DHT22;33997;53.278;9.708;2023-05-07T11:56:14;16.80;63.50
48208;DHT22;33997;53.278;9.708;2023-05-07T11:58:41;16.90;63.10
48208;DHT22;33997;53.278;9.708;2023-05-07T12:01:08;16.50;64.60
48208;DHT22;33997;53.278;9.708;2023-05-07T12:03:39;16.10;64.10
48208;DHT22;33997;53.278;9.708;2023-05-07T12:06:08;15.60;64.40
48208;DHT22;33997;53.278;9.708;2023-05-07T12:08:36;15.30;66.20
48208;DHT22;33997;53.278;9.708;2023-05-07T12:11:03;15.40;66.50
48208;DHT22;33997;53.278;9.708;2023-05-07T12:13:28;15.90;64.80
48208;DHT22;33997;53.278;9.708;2023-05-07T12:15:55;15.50;66.30
48208;DHT22;33997;53.278;9.708;2023-05-07T12:18:22;16.10;66.20
48208;DHT22;33997;53.278;9.708;2023-05-07T12:20:48;16.10;65.20
48208;DHT22;33997;53.278;9.708;2023-05-07T12:23:14;16.20;64.70
48208;DHT22;33997;53.278;9.708;2023-05-07T12:25:42;15.90;65.60
48208;DHT22;33997;53.278;9.708;2023-05-07T12:28:17;16.30;63.60
48208;DHT22;33997;53.278;9.708;2023-05-07T12:30:44;16.20;63.70
48208;DHT22;33997;53.278;9.708;2023-05-07T12:33:10;16.50;63.10
48208;DHT22;33997;53.278;9.708;2023-05-07T12:35:41;16.60;64.70
48208;DHT22;33997;53.278;9.708;2023-05-07T12:38:12;17.20;60.70
48208;DHT22;33997;53.278;9.708;2023-05-07T12:40:42;17.60;61.60
48208;DHT22;33997;53.278;9.708;2023-05-07T12:43:24;17.70;62.00
48208;DHT22;33997;53.278;9.708;2023-05-07T12:45:52;17.10;61.00
48208;DHT22;33997;53.278;9.708;2023-05-07T12:48:19;18.00;59.90
48208;DHT22;33997;53.278;9.708;2023-05-07T12:50:49;18.60;57.40
48208;DHT22;33997;53.278;9.708;2023-05-07T12:53:15;18.60;55.80
48208;DHT22;33997;53.278;9.708;2023-05-07T12:55:51;19.30;56.60
48208;DHT22;33997;53.278;9.708;2023-05-07T12:58:19;20.00;54.90
48208;DHT22;33997;53.278;9.708;2023-05-07T13:00:48;20.10;53.90
48208;DHT22;33997;53.278;9.708;2023-05-07T13:03:25;20.20;55.80
48208;DHT22;33997;53.278;9.708;2023-05-07T13:05:51;18.60;53.80
48208;DHT22;33997;53.278;9.708;2023-05-07T13:08:32;18.00;56.30
48208;DHT22;33997;53.278;9.708;2023-05-07T13:10:59;17.20;58.00
48208;DHT22;33997;53.278;9.708;2023-05-07T13:13:25;17.00;60.50
48208;DHT22;33997;53.278;9.708;2023-05-07T13:15:51;17.10;59.30
48208;DHT22;33997;53.278;9.708;2023-05-07T13:18:17;17.70;58.90
48208;DHT22;33997;53.278;9.708;2023-05-07T13:20:43;18.00;58.90
48208;DHT22;33997;53.278;9.708;2023-05-07T13:23:08;17.70;59.50
48208;DHT22;33997;53.278;9.708;2023-05-07T13:25:34;17.30;59.50
48208;DHT22;33997;53.278;9.708;2023-05-07T13:28:00;17.80;59.50
48208;DHT22;33997;53.278;9.708;2023-05-07T13:30:25;18.40;60.20
48208;DHT22;33997;53.278;9.708;2023-05-07T13:32:51;17.80;57.40
48208;DHT22;33997;53.278;9.708;2023-05-07T13:35:17;17.30;61.00
48208;DHT22;33997;53.278;9.708;2023-05-07T13:37:43;18.10;59.30
48208;DHT22;33997;53.278;9.708;2023-05-07T13:40:09;18.80;58.40
48208;DHT22;33997;53.278;9.708;2023-05-07T13:42:34;18.50;56.50
48208;DHT22;33997;53.278;9.708;2023-05-07T13:45:00;18.40;58.80
48208;DHT22;33997;53.278;9.708;2023-05-07T13:47:26;19.00;56.30
48208;DHT22;33997;53.278;9.708;2023-05-07T13:49:51;19.00;56.10
48208;DHT22;33997;53.278;9.708;2023-05-07T13:52:17;19.50;56.80
48208;DHT22;33997;53.278;9.708;2023-05-07T13:54:42;19.00;57.60
48208;DHT22;33997;53.278;9.708;2023-05-07T13:57:08;18.70;56.10
48208;DHT22;33997;53.278;9.708;2023-05-07T13:59:34;18.10;57.10
48208;DHT22;33997;53.278;9.708;2023-05-07T14:01:59;17.70;59.30
48208;DHT22;33997;53.278;9.708;2023-05-07T14:04:25;18.50;58.80
48208;DHT22;33997;53.278;9.708;2023-05-07T14:06:51;18.10;58.40
48208;DHT22;33997;53.278;9.708;2023-05-07T14:09:16;18.30;56.80
48208;DHT22;33997;53.278;9.708;2023-05-07T14:11:42;18.20;56.80
48208;DHT22;33997;53.278;9.708;2023-05-07T14:14:07;17.40;58.40
48208;DHT22;33997;53.278;9.708;2023-05-07T14:16:36;16.90;60.20
48208;DHT22;33997;53.278;9.708;2023-05-07T14:19:01;17.20;59.30
48208;DHT22;33997;53.278;9.708;2023-05-07T14:21:27;17.10;58.60
48208;DHT22;33997;53.278;9.708;2023-05-07T14:23:52;17.40;58.80
48208;DHT22;33997;53.278;9.708;2023-05-07T14:26:17;17.70;58.40
48208;DHT22;33997;53.278;9.708;2023-05-07T14:28:43;17.50;58.30
48208;DHT22;33997;53.278;9.708;2023-05-07T14:31:11;18.50;58.00
48208;DHT22;33997;53.278;9.708;2023-05-07T14:33:37;19.60;57.00
48208;DHT22;33997;53.278;9.708;2023-05-07T14:36:02;20.00;52.90
48208;DHT22;33997;53.278;9.708;2023-05-07T14:38:28;21.00;49.70
48208;DHT22;33997;53.278;9.708;2023-05-07T14:40:54;21.70;51.30
48208;DHT22;33997;53.278;9.708;2023-05-07T14:43:21;20.20;51.00
48208;DHT22;33997;53.278;9.708;2023-05-07T14:45:47;21.00;48.30
48208;DHT22;33997;53.278;9.708;2023-05-07T14:48:12;21.40;49.90
48208;DHT22;33997;53.278;9.708;2023-05-07T14:50:41;22.50;47.10
48208;DHT22;33997;53.278;9.708;2023-05-07T14:53:07;22.50;47.50
48208;DHT22;33997;53.278;9.708;2023-05-07T14:55:34;22.50;47.10
48208;DHT22;33997;53.278;9.708;2023-05-07T14:58:00;22.00;47.60
48208;DHT22;33997;53.278;9.708;2023-05-07T15:00:25;21.30;47.30
48208;DHT22;33997;53.278;9.708;2023-05-07T15:02:51;21.80;47.10
48208;DHT22;33997;53.278;9.708;2023-05-07T15:05:16;20.70;48.00
48208;DHT22;33997;53.278;9.708;2023-05-07T15:07:43;20.80;49.00
48208;DHT22;33997;53.278;9.708;2023-05-07T15:10:09;22.90;46.20
48208;DHT22;33997;53.278;9.708;2023-05-07T15:12:35;22.00;46.40
48208;DHT22;33997;53.278;9.708;2023-05-07T15:15:00;21.20;47.60
48208;DHT22;33997;53.278;9.708;2023-05-07T15:17:25;20.40;47.80
48208;DHT22;33997;53.278;9.708;2023-05-07T15:19:51;19.40;51.80
48208;DHT22;33997;53.278;9.708;2023-05-07T15:22:17;20.50;49.30
48208;DHT22;33997;53.278;9.708;2023-05-07T15:24:42;20.90;47.90
48208;DHT22;33997;53.278;9.708;2023-05-07T15:27:09;19.70;50.80
48208;DHT22;33997;53.278;9.708;2023-05-07T15:29:35;18.90;53.60
48208;DHT22;33997;53.278;9.708;2023-05-07T15:32:00;20.00;52.20
48208;DHT22;33997;53.278;9.708;2023-05-07T15:34:26;19.60;50.80
48208;DHT22;33997;53.278;9.708;2023-05-07T15:36:52;19.10;52.00
48208;DHT22;33997;53.278;9.708;2023-05-07T15:39:18;19.00;51.70
48208;DHT22;33997;53.278;9.708;2023-05-07T15:41:43;18.50;53.50
48208;DHT22;33997;53.278;9.708;2023-05-07T15:44:09;17.60;54.00
48208;DHT22;33997;53.278;9.708;2023-05-07T15:46:35;17.20;55.70
48208;DHT22;33997;53.278;9.708;2023-05-07T15:49:02;17.30;56.40
48208;DHT22;33997;53.278;9.708;2023-05-07T15:51:28;17.70;56.90
48208;DHT22;33997;53.278;9.708;2023-05-07T15:53:54;18.00;54.40
48208;DHT22;33997;53.278;9.708;2023-05-07T15:56:20;17.90;54.30